QTR1 KIND-KORD
Flight info
| Callsign | QTR1 |
|---|---|
| Flight time | 0h 38m |
| Altitude | 23000 |
| Route | MEARZ7 MEARZ BRATN BONNT VEECK5 |
| Aircraft | A388/J-SADE2E3FGHIJ3J4J5M1RWXY/LB1D1 |
Departure
| Time | 2026-05-05 23:16 |
|---|---|
| Airport | Indianapolis International Airport (KIND) |
Arrival
| Time | 2026-05-05 23:54 |
|---|---|
| Airport | Chicago O'Hare International Airport (KORD) |
| Time | Latitude | Longitude | Altitude | Speed | Heading |
|---|---|---|---|---|---|
| 2026-05-05 22:55 | 39.70813 | -86.29073 | 794 ft | 0 kts | 315° |
| 2026-05-05 23:05 | 39.70806 | -86.29065 | 794 ft | 2 kts | 318° |
| 2026-05-05 23:06 | 39.70791 | -86.29060 | 785 ft | 2 kts | 8° |
| 2026-05-05 23:06 | 39.70784 | -86.29065 | 785 ft | 0 kts | 33° |
| 2026-05-05 23:08 | 39.70785 | -86.29065 | 794 ft | 0 kts | 34° |
| 2026-05-05 23:08 | 39.70785 | -86.29064 | 794 ft | 0 kts | 34° |
| 2026-05-05 23:09 | 39.70786 | -86.29064 | 794 ft | 0 kts | 34° |
| 2026-05-05 23:09 | 39.70786 | -86.29063 | 794 ft | 3 kts | 34° |
| 2026-05-05 23:09 | 39.70852 | -86.29016 | 795 ft | 8 kts | 354° |
| 2026-05-05 23:09 | 39.70891 | -86.29046 | 795 ft | 6 kts | 310° |
| 2026-05-05 23:10 | 39.70899 | -86.29125 | 795 ft | 10 kts | 238° |
| 2026-05-05 23:10 | 39.70837 | -86.29209 | 794 ft | 16 kts | 225° |
| 2026-05-05 23:10 | 39.70748 | -86.29323 | 796 ft | 19 kts | 225° |
| 2026-05-05 23:10 | 39.70642 | -86.29445 | 797 ft | 22 kts | 215° |
| 2026-05-05 23:11 | 39.70500 | -86.29540 | 800 ft | 24 kts | 213° |
| 2026-05-05 23:11 | 39.70377 | -86.29700 | 798 ft | 27 kts | 225° |
| 2026-05-05 23:11 | 39.70234 | -86.29876 | 796 ft | 30 kts | 224° |
| 2026-05-05 23:11 | 39.70093 | -86.30053 | 796 ft | 28 kts | 225° |
| 2026-05-05 23:12 | 39.70011 | -86.30161 | 796 ft | 9 kts | 225° |
| 2026-05-05 23:12 | 39.69953 | -86.30238 | 797 ft | 13 kts | 234° |
| 2026-05-05 23:12 | 39.69949 | -86.30324 | 799 ft | 0 kts | 318° |
| 2026-05-05 23:13 | 39.69950 | -86.30324 | 799 ft | 0 kts | 317° |
| 2026-05-05 23:14 | 39.69950 | -86.30325 | 799 ft | 1 kts | 317° |
| 2026-05-05 23:14 | 39.69997 | -86.30385 | 799 ft | 14 kts | 315° |
| 2026-05-05 23:15 | 39.70057 | -86.30405 | 797 ft | 0 kts | 47° |
| 2026-05-05 23:15 | 39.70060 | -86.30401 | 797 ft | 0 kts | 46° |
| 2026-05-05 23:15 | 39.70073 | -86.30383 | 796 ft | 23 kts | 44° |
| 2026-05-05 23:16 | 39.70450 | -86.29907 | 796 ft | 124 kts | 45° |
| 2026-05-05 23:16 | 39.71212 | -86.28929 | 904 ft | 172 kts | 45° |
| 2026-05-05 23:16 | 39.72016 | -86.27813 | 1874 ft | 160 kts | 40° |
| 2026-05-05 23:16 | 39.72798 | -86.26833 | 2784 ft | 165 kts | 40° |
| 2026-05-05 23:17 | 39.73694 | -86.25723 | 3347 ft | 190 kts | 41° |
| 2026-05-05 23:17 | 39.74734 | -86.24434 | 3799 ft | 221 kts | 41° |
| 2026-05-05 23:17 | 39.75907 | -86.22972 | 4334 ft | 248 kts | 43° |
| 2026-05-05 23:17 | 39.77282 | -86.21441 | 4825 ft | 273 kts | 29° |
| 2026-05-05 23:18 | 39.79117 | -86.20621 | 5538 ft | 284 kts | 9° |
| 2026-05-05 23:18 | 39.81084 | -86.20201 | 6474 ft | 291 kts | 5° |
| 2026-05-05 23:18 | 39.83110 | -86.19830 | 7337 ft | 296 kts | 5° |
| 2026-05-05 23:18 | 39.85164 | -86.19430 | 8249 ft | 302 kts | 5° |
| 2026-05-05 23:19 | 39.87256 | -86.18988 | 9151 ft | 308 kts | 5° |
| 2026-05-05 23:19 | 39.89392 | -86.18514 | 10021 ft | 313 kts | 5° |
| 2026-05-05 23:19 | 39.91602 | -86.18017 | 10458 ft | 334 kts | 5° |
| 2026-05-05 23:19 | 39.93979 | -86.17484 | 10683 ft | 358 kts | 5° |
| 2026-05-05 23:20 | 39.96480 | -86.16914 | 11163 ft | 370 kts | 5° |
| 2026-05-05 23:20 | 39.99029 | -86.16325 | 12025 ft | 371 kts | 6° |
| 2026-05-05 23:20 | 40.01588 | -86.15728 | 12614 ft | 378 kts | 6° |
| 2026-05-05 23:20 | 40.04186 | -86.15127 | 12868 ft | 380 kts | 6° |
| 2026-05-05 23:21 | 40.06813 | -86.14523 | 13479 ft | 385 kts | 6° |
| 2026-05-05 23:21 | 40.09451 | -86.13915 | 14225 ft | 387 kts | 6° |
| 2026-05-05 23:21 | 40.12100 | -86.13167 | 14882 ft | 395 kts | 14° |
| 2026-05-05 23:21 | 40.14596 | -86.11584 | 15568 ft | 405 kts | 31° |
| 2026-05-05 23:22 | 40.16762 | -86.09175 | 16196 ft | 413 kts | 43° |
| 2026-05-05 23:22 | 40.18835 | -86.06528 | 16778 ft | 419 kts | 42° |
| 2026-05-05 23:22 | 40.20933 | -86.03883 | 17467 ft | 422 kts | 42° |
| 2026-05-05 23:22 | 40.23068 | -86.01201 | 18017 ft | 428 kts | 42° |
| 2026-05-05 23:23 | 40.25228 | -85.98487 | 18583 ft | 432 kts | 41° |
| 2026-05-05 23:23 | 40.27397 | -85.95758 | 19123 ft | 434 kts | 41° |
| 2026-05-05 23:23 | 40.29585 | -85.93002 | 19700 ft | 437 kts | 41° |
| 2026-05-05 23:23 | 40.31784 | -85.90229 | 20240 ft | 440 kts | 41° |
| 2026-05-05 23:24 | 40.33998 | -85.87434 | 20775 ft | 444 kts | 40° |
| 2026-05-05 23:24 | 40.36224 | -85.84620 | 21323 ft | 447 kts | 40° |
| 2026-05-05 23:24 | 40.38463 | -85.81788 | 21876 ft | 450 kts | 40° |
| 2026-05-05 23:24 | 40.40718 | -85.78933 | 22426 ft | 453 kts | 40° |
| 2026-05-05 23:25 | 40.43003 | -85.76037 | 22796 ft | 459 kts | 40° |
| 2026-05-05 23:25 | 40.45357 | -85.73207 | 22886 ft | 463 kts | 32° |
| 2026-05-05 23:25 | 40.48125 | -85.70994 | 22893 ft | 466 kts | 18° |
| 2026-05-05 23:25 | 40.51166 | -85.69640 | 22889 ft | 458 kts | 5° |
| 2026-05-05 23:26 | 40.54189 | -85.69193 | 22888 ft | 445 kts | 352° |
| 2026-05-05 23:26 | 40.57222 | -85.69632 | 22887 ft | 432 kts | 339° |
| 2026-05-05 23:26 | 40.60006 | -85.70839 | 22887 ft | 424 kts | 331° |
| 2026-05-05 23:26 | 40.62739 | -85.72279 | 22889 ft | 424 kts | 331° |
| 2026-05-05 23:27 | 40.65552 | -85.73641 | 22893 ft | 427 kts | 334° |
| 2026-05-05 23:27 | 40.68347 | -85.74836 | 22893 ft | 428 kts | 335° |
| 2026-05-05 23:27 | 40.71245 | -85.75969 | 22896 ft | 429 kts | 336° |
| 2026-05-05 23:27 | 40.74121 | -85.77044 | 22898 ft | 430 kts | 337° |
| 2026-05-05 23:28 | 40.77002 | -85.78104 | 22899 ft | 430 kts | 337° |
| 2026-05-05 23:28 | 40.79882 | -85.79161 | 22896 ft | 430 kts | 337° |
| 2026-05-05 23:28 | 40.82707 | -85.80392 | 22898 ft | 422 kts | 328° |
| 2026-05-05 23:28 | 40.85147 | -85.82305 | 22896 ft | 407 kts | 315° |
| 2026-05-05 23:29 | 40.87157 | -85.84867 | 22899 ft | 398 kts | 303° |
| 2026-05-05 23:29 | 40.88672 | -85.87875 | 22893 ft | 390 kts | 292° |
| 2026-05-05 23:29 | 40.89748 | -85.91135 | 22887 ft | 387 kts | 288° |
| 2026-05-05 23:29 | 40.90801 | -85.94410 | 22886 ft | 388 kts | 289° |
| 2026-05-05 23:30 | 40.91872 | -85.97678 | 22884 ft | 388 kts | 289° |
| 2026-05-05 23:30 | 40.92584 | -85.99848 | 22884 ft | 388 kts | 289° |
| 2026-05-05 23:30 | 40.94014 | -86.04224 | 22881 ft | 388 kts | 289° |
| 2026-05-05 23:30 | 40.95078 | -86.07497 | 22882 ft | 388 kts | 289° |
| 2026-05-05 23:31 | 40.96141 | -86.10778 | 22879 ft | 388 kts | 289° |
| 2026-05-05 23:31 | 40.97202 | -86.14055 | 22879 ft | 388 kts | 290° |
| 2026-05-05 23:31 | 40.98491 | -86.17211 | 22885 ft | 392 kts | 295° |
| 2026-05-05 23:31 | 40.99406 | -86.19278 | 22884 ft | 392 kts | 296° |
| 2026-05-05 23:32 | 41.01077 | -86.22168 | 22880 ft | 401 kts | 306° |
| 2026-05-05 23:32 | 41.02978 | -86.24867 | 22880 ft | 401 kts | 307° |
| 2026-05-05 23:32 | 41.04889 | -86.27570 | 22887 ft | 401 kts | 307° |
| 2026-05-05 23:32 | 41.06790 | -86.30271 | 22885 ft | 401 kts | 307° |
| 2026-05-05 23:33 | 41.08686 | -86.32978 | 22878 ft | 399 kts | 306° |
| 2026-05-05 23:33 | 41.10570 | -86.35678 | 22882 ft | 399 kts | 306° |
| 2026-05-05 23:33 | 41.12453 | -86.38384 | 22885 ft | 399 kts | 306° |
| 2026-05-05 23:33 | 41.14332 | -86.41089 | 22877 ft | 399 kts | 306° |
| 2026-05-05 23:34 | 41.16212 | -86.43795 | 22876 ft | 399 kts | 306° |
| 2026-05-05 23:34 | 41.18089 | -86.46502 | 22876 ft | 399 kts | 306° |
| 2026-05-05 23:34 | 41.19971 | -86.49216 | 22876 ft | 399 kts | 306° |
| 2026-05-05 23:34 | 41.21853 | -86.51933 | 22875 ft | 399 kts | 306° |
| 2026-05-05 23:35 | 41.23725 | -86.54639 | 22870 ft | 399 kts | 306° |
| 2026-05-05 23:35 | 41.25606 | -86.57360 | 22871 ft | 400 kts | 306° |
| 2026-05-05 23:35 | 41.27483 | -86.60078 | 22865 ft | 399 kts | 306° |
| 2026-05-05 23:35 | 41.29355 | -86.62788 | 22505 ft | 396 kts | 306° |
| 2026-05-05 23:36 | 41.31207 | -86.65474 | 21744 ft | 396 kts | 306° |
| 2026-05-05 23:36 | 41.33071 | -86.68182 | 20981 ft | 394 kts | 306° |
| 2026-05-05 23:36 | 41.34917 | -86.70864 | 20181 ft | 392 kts | 306° |
| 2026-05-05 23:36 | 41.36756 | -86.73539 | 19402 ft | 390 kts | 306° |
| 2026-05-05 23:37 | 41.38587 | -86.76206 | 18693 ft | 389 kts | 306° |
| 2026-05-05 23:37 | 41.40390 | -86.78828 | 18347 ft | 378 kts | 306° |
| 2026-05-05 23:37 | 41.42132 | -86.81355 | 18183 ft | 362 kts | 306° |
| 2026-05-05 23:37 | 41.43789 | -86.83764 | 18051 ft | 347 kts | 306° |
| 2026-05-05 23:38 | 41.45386 | -86.86094 | 17805 ft | 336 kts | 306° |
| 2026-05-05 23:38 | 41.46951 | -86.88388 | 17345 ft | 333 kts | 306° |
| 2026-05-05 23:38 | 41.48498 | -86.90662 | 16872 ft | 330 kts | 306° |
| 2026-05-05 23:38 | 41.50033 | -86.92917 | 16419 ft | 327 kts | 306° |
| 2026-05-05 23:39 | 41.51554 | -86.95149 | 15984 ft | 324 kts | 306° |
| 2026-05-05 23:39 | 41.53057 | -86.97350 | 15708 ft | 316 kts | 306° |
| 2026-05-05 23:39 | 41.54523 | -86.99501 | 15284 ft | 313 kts | 306° |
| 2026-05-05 23:39 | 41.55980 | -87.01643 | 14861 ft | 310 kts | 306° |
| 2026-05-05 23:40 | 41.57424 | -87.03766 | 14429 ft | 307 kts | 307° |
| 2026-05-05 23:40 | 41.58854 | -87.05872 | 14011 ft | 304 kts | 307° |
| 2026-05-05 23:40 | 41.60268 | -87.07952 | 13588 ft | 301 kts | 307° |
| 2026-05-05 23:40 | 41.61646 | -87.09978 | 13267 ft | 294 kts | 307° |
| 2026-05-05 23:41 | 41.63021 | -87.12002 | 12889 ft | 290 kts | 307° |
| 2026-05-05 23:41 | 41.64374 | -87.14000 | 12421 ft | 289 kts | 307° |
| 2026-05-05 23:41 | 41.65721 | -87.15990 | 11964 ft | 288 kts | 307° |
| 2026-05-05 23:41 | 41.67048 | -87.17952 | 11516 ft | 287 kts | 307° |
| 2026-05-05 23:42 | 41.68405 | -87.19958 | 11075 ft | 286 kts | 307° |
| 2026-05-05 23:42 | 41.69712 | -87.21885 | 10932 ft | 274 kts | 307° |
| 2026-05-05 23:42 | 41.70985 | -87.23765 | 10575 ft | 272 kts | 306° |
| 2026-05-05 23:42 | 41.72233 | -87.25616 | 10176 ft | 271 kts | 306° |
| 2026-05-05 23:43 | 41.73511 | -87.27513 | 9772 ft | 271 kts | 306° |
| 2026-05-05 23:43 | 41.74773 | -87.29386 | 9357 ft | 269 kts | 306° |
| 2026-05-05 23:43 | 41.76024 | -87.31244 | 8932 ft | 268 kts | 307° |
| 2026-05-05 23:43 | 41.77254 | -87.33072 | 8552 ft | 266 kts | 307° |
| 2026-05-05 23:44 | 41.78494 | -87.34916 | 8147 ft | 267 kts | 308° |
| 2026-05-05 23:44 | 41.79735 | -87.36760 | 7896 ft | 266 kts | 308° |
| 2026-05-05 23:44 | 41.80972 | -87.38599 | 7619 ft | 265 kts | 309° |
| 2026-05-05 23:44 | 41.82200 | -87.40423 | 7498 ft | 254 kts | 309° |
| 2026-05-05 23:45 | 41.83343 | -87.42121 | 7403 ft | 243 kts | 309° |
| 2026-05-05 23:45 | 41.84450 | -87.43766 | 7303 ft | 232 kts | 309° |
| 2026-05-05 23:45 | 41.85505 | -87.45338 | 7241 ft | 222 kts | 309° |
| 2026-05-05 23:45 | 41.86512 | -87.46839 | 7183 ft | 210 kts | 309° |
| 2026-05-05 23:46 | 41.87474 | -87.48276 | 6914 ft | 207 kts | 309° |
| 2026-05-05 23:46 | 41.88396 | -87.49655 | 6497 ft | 190 kts | 310° |
| 2026-05-05 23:46 | 41.89277 | -87.50973 | 5480 ft | 195 kts | 311° |
| 2026-05-05 23:46 | 41.90191 | -87.52340 | 4742 ft | 197 kts | 311° |
| 2026-05-05 23:47 | 41.91107 | -87.53711 | 4334 ft | 194 kts | 311° |
| 2026-05-05 23:47 | 41.92003 | -87.55050 | 4172 ft | 194 kts | 311° |
| 2026-05-05 23:47 | 41.92904 | -87.56399 | 4047 ft | 194 kts | 311° |
| 2026-05-05 23:47 | 41.93801 | -87.57741 | 4005 ft | 190 kts | 311° |
| 2026-05-05 23:48 | 41.94658 | -87.59024 | 4006 ft | 181 kts | 311° |
| 2026-05-05 23:48 | 41.95491 | -87.60272 | 4008 ft | 179 kts | 311° |
| 2026-05-05 23:48 | 41.96321 | -87.61516 | 4011 ft | 178 kts | 311° |
| 2026-05-05 23:48 | 41.97143 | -87.62748 | 4009 ft | 177 kts | 311° |
| 2026-05-05 23:49 | 41.97963 | -87.63977 | 4007 ft | 177 kts | 311° |
| 2026-05-05 23:49 | 41.98661 | -87.65266 | 4005 ft | 165 kts | 292° |
| 2026-05-05 23:49 | 41.98851 | -87.66723 | 3934 ft | 150 kts | 274° |
| 2026-05-05 23:49 | 41.98835 | -87.68056 | 3742 ft | 136 kts | 270° |
| 2026-05-05 23:50 | 41.98830 | -87.69303 | 3575 ft | 131 kts | 273° |
| 2026-05-05 23:50 | 41.98831 | -87.70519 | 3395 ft | 130 kts | 272° |
| 2026-05-05 23:50 | 41.98831 | -87.71730 | 3219 ft | 130 kts | 273° |
| 2026-05-05 23:50 | 41.98829 | -87.72946 | 3043 ft | 130 kts | 272° |
| 2026-05-05 23:51 | 41.98830 | -87.74157 | 2867 ft | 128 kts | 273° |
| 2026-05-05 23:51 | 41.98830 | -87.75353 | 2690 ft | 128 kts | 273° |
| 2026-05-05 23:51 | 41.98830 | -87.76550 | 2514 ft | 129 kts | 272° |
| 2026-05-05 23:51 | 41.98830 | -87.77743 | 2349 ft | 130 kts | 272° |
| 2026-05-05 23:52 | 41.98829 | -87.78966 | 2160 ft | 128 kts | 272° |
| 2026-05-05 23:52 | 41.98831 | -87.80146 | 1997 ft | 128 kts | 273° |
| 2026-05-05 23:52 | 41.98829 | -87.81340 | 1814 ft | 127 kts | 272° |
| 2026-05-05 23:52 | 41.98832 | -87.82537 | 1645 ft | 129 kts | 272° |
| 2026-05-05 23:53 | 41.98829 | -87.83759 | 1448 ft | 130 kts | 270° |
| 2026-05-05 23:53 | 41.98832 | -87.84941 | 1285 ft | 125 kts | 273° |
| 2026-05-05 23:53 | 41.98829 | -87.86114 | 1107 ft | 126 kts | 272° |
| 2026-05-05 23:53 | 41.98832 | -87.87276 | 948 ft | 124 kts | 270° |
| 2026-05-05 23:54 | 41.98832 | -87.88483 | 779 ft | 127 kts | 273° |
| 2026-05-05 23:54 | 41.98831 | -87.89630 | 667 ft | 114 kts | 272° |
| 2026-05-05 23:54 | 41.98832 | -87.90243 | 673 ft | 40 kts | 269° |
| 2026-05-05 23:54 | 41.98828 | -87.90584 | 675 ft | 36 kts | 265° |
| 2026-05-05 23:55 | 41.98661 | -87.90834 | 673 ft | 40 kts | 203° |
| 2026-05-05 23:55 | 41.98452 | -87.90858 | 664 ft | 10 kts | 179° |
| 2026-05-05 23:55 | 41.98390 | -87.90858 | 664 ft | 9 kts | 180° |
| 2026-05-05 23:55 | 41.98345 | -87.90874 | 665 ft | 6 kts | 210° |
| 2026-05-05 23:56 | 41.98313 | -87.90927 | 671 ft | 10 kts | 240° |
| 2026-05-05 23:56 | 41.98272 | -87.91024 | 667 ft | 14 kts | 242° |
| 2026-05-05 23:56 | 41.98218 | -87.91111 | 668 ft | 11 kts | 192° |
| 2026-05-05 23:56 | 41.98173 | -87.91079 | 669 ft | 5 kts | 94° |
| 2026-05-05 23:57 | 41.98195 | -87.91003 | 667 ft | 14 kts | 65° |
| 2026-05-05 23:57 | 41.98204 | -87.90886 | 667 ft | 12 kts | 137° |
| 2026-05-05 23:57 | 41.98104 | -87.90850 | 667 ft | 17 kts | 183° |
| 2026-05-05 23:57 | 41.98001 | -87.90877 | 670 ft | 13 kts | 218° |
| 2026-05-05 23:58 | 41.97985 | -87.90918 | 671 ft | 0 kts | 261° |